sensor_id;sensor_type;location;lat;lon;timestamp;P1;durP1;ratioP1;P2;durP2;ratioP2
75297;SDS011;63896;45.990;18.688;2024-01-30T00:00:44;55.67;;;20.77;;
75297;SDS011;63896;45.990;18.688;2024-01-30T00:03:47;49.50;;;17.70;;
75297;SDS011;63896;45.990;18.688;2024-01-30T00:06:50;47.20;;;16.67;;
75297;SDS011;63896;45.990;18.688;2024-01-30T00:09:55;47.80;;;17.92;;
75297;SDS011;63896;45.990;18.688;2024-01-30T00:12:58;50.58;;;17.45;;
75297;SDS011;63896;45.990;18.688;2024-01-30T00:16:00;47.17;;;18.33;;
75297;SDS011;63896;45.990;18.688;2024-01-30T00:19:03;48.00;;;17.13;;
75297;SDS011;63896;45.990;18.688;2024-01-30T00:22:06;55.20;;;19.13;;
75297;SDS011;63896;45.990;18.688;2024-01-30T00:25:10;44.83;;;18.92;;
75297;SDS011;63896;45.990;18.688;2024-01-30T00:28:13;52.95;;;20.33;;
75297;SDS011;63896;45.990;18.688;2024-01-30T00:31:16;54.15;;;20.30;;
75297;SDS011;63896;45.990;18.688;2024-01-30T00:34:19;50.13;;;17.47;;
75297;SDS011;63896;45.990;18.688;2024-01-30T00:37:21;53.67;;;19.60;;
75297;SDS011;63896;45.990;18.688;2024-01-30T00:40:24;44.90;;;17.40;;
75297;SDS011;63896;45.990;18.688;2024-01-30T00:43:27;40.97;;;16.40;;
75297;SDS011;63896;45.990;18.688;2024-01-30T00:46:30;41.20;;;15.85;;
75297;SDS011;63896;45.990;18.688;2024-01-30T00:49:33;45.37;;;16.10;;
75297;SDS011;63896;45.990;18.688;2024-01-30T00:52:36;45.03;;;16.03;;
75297;SDS011;63896;45.990;18.688;2024-01-30T00:55:41;42.33;;;15.05;;
75297;SDS011;63896;45.990;18.688;2024-01-30T00:58:44;44.00;;;17.23;;
75297;SDS011;63896;45.990;18.688;2024-01-30T01:01:46;47.50;;;15.85;;
75297;SDS011;63896;45.990;18.688;2024-01-30T01:04:49;43.97;;;16.43;;
75297;SDS011;63896;45.990;18.688;2024-01-30T01:07:52;39.50;;;15.63;;
75297;SDS011;63896;45.990;18.688;2024-01-30T01:10:55;46.80;;;16.10;;
75297;SDS011;63896;45.990;18.688;2024-01-30T01:13:58;43.00;;;15.35;;
75297;SDS011;63896;45.990;18.688;2024-01-30T01:17:00;43.67;;;15.85;;
75297;SDS011;63896;45.990;18.688;2024-01-30T01:20:04;52.23;;;16.50;;
75297;SDS011;63896;45.990;18.688;2024-01-30T01:23:09;47.73;;;17.23;;
75297;SDS011;63896;45.990;18.688;2024-01-30T01:26:12;44.15;;;16.90;;
75297;SDS011;63896;45.990;18.688;2024-01-30T01:29:14;49.60;;;16.38;;
75297;SDS011;63896;45.990;18.688;2024-01-30T01:32:18;48.80;;;17.42;;
75297;SDS011;63896;45.990;18.688;2024-01-30T01:35:22;42.13;;;16.77;;
75297;SDS011;63896;45.990;18.688;2024-01-30T01:38:27;44.90;;;17.20;;
75297;SDS011;63896;45.990;18.688;2024-01-30T01:41:30;34.97;;;13.73;;
75297;SDS011;63896;45.990;18.688;2024-01-30T01:44:34;41.38;;;14.70;;
75297;SDS011;63896;45.990;18.688;2024-01-30T01:47:37;41.50;;;16.50;;
75297;SDS011;63896;45.990;18.688;2024-01-30T01:50:40;44.57;;;16.90;;
75297;SDS011;63896;45.990;18.688;2024-01-30T01:53:45;43.03;;;16.13;;
75297;SDS011;63896;45.990;18.688;2024-01-30T01:56:48;46.38;;;17.05;;
75297;SDS011;63896;45.990;18.688;2024-01-30T01:59:51;41.22;;;17.08;;
75297;SDS011;63896;45.990;18.688;2024-01-30T02:02:54;46.45;;;16.92;;
75297;SDS011;63896;45.990;18.688;2024-01-30T02:05:57;48.23;;;19.07;;
75297;SDS011;63896;45.990;18.688;2024-01-30T02:09:00;49.97;;;17.93;;
75297;SDS011;63896;45.990;18.688;2024-01-30T02:12:03;46.50;;;16.75;;
75297;SDS011;63896;45.990;18.688;2024-01-30T02:15:06;42.80;;;16.42;;
75297;SDS011;63896;45.990;18.688;2024-01-30T02:18:10;46.30;;;17.27;;
75297;SDS011;63896;45.990;18.688;2024-01-30T02:21:14;48.10;;;16.80;;
75297;SDS011;63896;45.990;18.688;2024-01-30T02:24:18;42.40;;;15.97;;
75297;SDS011;63896;45.990;18.688;2024-01-30T02:27:21;34.53;;;15.02;;
75297;SDS011;63896;45.990;18.688;2024-01-30T02:30:23;48.72;;;15.50;;
75297;SDS011;63896;45.990;18.688;2024-01-30T02:33:26;39.63;;;15.25;;
75297;SDS011;63896;45.990;18.688;2024-01-30T02:36:29;36.33;;;14.90;;
75297;SDS011;63896;45.990;18.688;2024-01-30T02:39:32;30.67;;;12.50;;
75297;SDS011;63896;45.990;18.688;2024-01-30T02:42:35;39.47;;;13.32;;
75297;SDS011;63896;45.990;18.688;2024-01-30T02:45:37;46.92;;;15.77;;
75297;SDS011;63896;45.990;18.688;2024-01-30T02:48:40;48.92;;;15.65;;
75297;SDS011;63896;45.990;18.688;2024-01-30T02:51:45;43.67;;;14.27;;
75297;SDS011;63896;45.990;18.688;2024-01-30T02:54:48;40.77;;;14.37;;
75297;SDS011;63896;45.990;18.688;2024-01-30T02:57:51;35.35;;;14.40;;
75297;SDS011;63896;45.990;18.688;2024-01-30T03:00:54;32.28;;;11.55;;
75297;SDS011;63896;45.990;18.688;2024-01-30T03:03:56;38.75;;;14.73;;
75297;SDS011;63896;45.990;18.688;2024-01-30T03:06:59;41.80;;;14.87;;
75297;SDS011;63896;45.990;18.688;2024-01-30T03:10:04;35.30;;;15.13;;
75297;SDS011;63896;45.990;18.688;2024-01-30T03:13:07;41.15;;;15.55;;
75297;SDS011;63896;45.990;18.688;2024-01-30T03:16:10;40.50;;;15.68;;
75297;SDS011;63896;45.990;18.688;2024-01-30T03:19:13;42.85;;;16.15;;
75297;SDS011;63896;45.990;18.688;2024-01-30T03:22:16;42.13;;;14.97;;
75297;SDS011;63896;45.990;18.688;2024-01-30T03:25:19;44.23;;;15.70;;
75297;SDS011;63896;45.990;18.688;2024-01-30T03:28:21;40.78;;;16.80;;
75297;SDS011;63896;45.990;18.688;2024-01-30T03:31:24;44.47;;;16.30;;
75297;SDS011;63896;45.990;18.688;2024-01-30T03:34:27;42.42;;;15.80;;
75297;SDS011;63896;45.990;18.688;2024-01-30T03:37:30;44.73;;;15.40;;
75297;SDS011;63896;45.990;18.688;2024-01-30T03:40:33;46.93;;;17.70;;
75297;SDS011;63896;45.990;18.688;2024-01-30T03:43:36;43.67;;;16.60;;
75297;SDS011;63896;45.990;18.688;2024-01-30T03:46:39;41.08;;;16.85;;
75297;SDS011;63896;45.990;18.688;2024-01-30T03:49:41;52.53;;;16.42;;
75297;SDS011;63896;45.990;18.688;2024-01-30T03:52:44;48.20;;;18.70;;
75297;SDS011;63896;45.990;18.688;2024-01-30T03:55:47;48.73;;;18.40;;
75297;SDS011;63896;45.990;18.688;2024-01-30T03:58:50;50.08;;;19.52;;
75297;SDS011;63896;45.990;18.688;2024-01-30T04:01:53;53.20;;;19.50;;
75297;SDS011;63896;45.990;18.688;2024-01-30T04:04:56;48.10;;;18.70;;
75297;SDS011;63896;45.990;18.688;2024-01-30T04:07:59;47.27;;;17.77;;
75297;SDS011;63896;45.990;18.688;2024-01-30T04:11:05;52.93;;;18.37;;
75297;SDS011;63896;45.990;18.688;2024-01-30T04:14:08;50.63;;;18.75;;
75297;SDS011;63896;45.990;18.688;2024-01-30T04:17:11;50.33;;;19.00;;
75297;SDS011;63896;45.990;18.688;2024-01-30T04:20:14;48.55;;;19.17;;
75297;SDS011;63896;45.990;18.688;2024-01-30T04:23:18;51.83;;;19.07;;
75297;SDS011;63896;45.990;18.688;2024-01-30T04:26:21;53.53;;;21.07;;
75297;SDS011;63896;45.990;18.688;2024-01-30T04:29:24;52.03;;;20.65;;
75297;SDS011;63896;45.990;18.688;2024-01-30T04:32:27;61.08;;;19.63;;
75297;SDS011;63896;45.990;18.688;2024-01-30T04:35:30;53.83;;;20.02;;
75297;SDS011;63896;45.990;18.688;2024-01-30T04:38:34;52.93;;;19.03;;
75297;SDS011;63896;45.990;18.688;2024-01-30T04:41:36;55.73;;;20.43;;
75297;SDS011;63896;45.990;18.688;2024-01-30T04:44:39;48.92;;;20.08;;
75297;SDS011;63896;45.990;18.688;2024-01-30T04:47:42;53.55;;;20.27;;
75297;SDS011;63896;45.990;18.688;2024-01-30T04:50:45;51.72;;;18.58;;
75297;SDS011;63896;45.990;18.688;2024-01-30T04:53:48;44.50;;;17.80;;
75297;SDS011;63896;45.990;18.688;2024-01-30T04:56:50;50.73;;;18.70;;
75297;SDS011;63896;45.990;18.688;2024-01-30T04:59:53;47.55;;;18.55;;
75297;SDS011;63896;45.990;18.688;2024-01-30T05:02:56;46.58;;;19.45;;
75297;SDS011;63896;45.990;18.688;2024-01-30T05:05:59;45.88;;;16.38;;
75297;SDS011;63896;45.990;18.688;2024-01-30T05:09:01;48.30;;;18.47;;
75297;SDS011;63896;45.990;18.688;2024-01-30T05:12:06;47.57;;;17.07;;
75297;SDS011;63896;45.990;18.688;2024-01-30T05:15:09;40.13;;;16.75;;
75297;SDS011;63896;45.990;18.688;2024-01-30T05:18:12;50.45;;;17.58;;
75297;SDS011;63896;45.990;18.688;2024-01-30T05:21:15;49.42;;;17.27;;
75297;SDS011;63896;45.990;18.688;2024-01-30T05:24:18;50.03;;;18.37;;
75297;SDS011;63896;45.990;18.688;2024-01-30T05:27:22;49.40;;;17.47;;
75297;SDS011;63896;45.990;18.688;2024-01-30T05:30:25;53.25;;;17.50;;
75297;SDS011;63896;45.990;18.688;2024-01-30T05:33:28;50.03;;;18.63;;
75297;SDS011;63896;45.990;18.688;2024-01-30T05:36:31;51.83;;;18.63;;
75297;SDS011;63896;45.990;18.688;2024-01-30T05:39:33;52.47;;;18.13;;
75297;SDS011;63896;45.990;18.688;2024-01-30T05:42:36;50.10;;;18.07;;
75297;SDS011;63896;45.990;18.688;2024-01-30T05:45:39;61.85;;;23.23;;
75297;SDS011;63896;45.990;18.688;2024-01-30T05:48:42;75.22;;;25.52;;
75297;SDS011;63896;45.990;18.688;2024-01-30T05:51:45;56.40;;;21.85;;
75297;SDS011;63896;45.990;18.688;2024-01-30T05:54:48;64.27;;;24.43;;
75297;SDS011;63896;45.990;18.688;2024-01-30T05:57:51;75.90;;;26.90;;
75297;SDS011;63896;45.990;18.688;2024-01-30T06:00:55;76.97;;;28.05;;
75297;SDS011;63896;45.990;18.688;2024-01-30T06:03:58;71.82;;;23.42;;
75297;SDS011;63896;45.990;18.688;2024-01-30T06:07:01;64.60;;;23.75;;
75297;SDS011;63896;45.990;18.688;2024-01-30T06:10:04;61.73;;;22.03;;
75297;SDS011;63896;45.990;18.688;2024-01-30T06:13:09;70.17;;;23.67;;
75297;SDS011;63896;45.990;18.688;2024-01-30T06:16:12;58.97;;;23.35;;
75297;SDS011;63896;45.990;18.688;2024-01-30T06:19:15;63.50;;;22.83;;
75297;SDS011;63896;45.990;18.688;2024-01-30T06:22:18;60.83;;;21.33;;
75297;SDS011;63896;45.990;18.688;2024-01-30T06:25:21;58.33;;;21.27;;
75297;SDS011;63896;45.990;18.688;2024-01-30T06:28:24;57.10;;;21.60;;
75297;SDS011;63896;45.990;18.688;2024-01-30T06:31:30;66.22;;;22.95;;
75297;SDS011;63896;45.990;18.688;2024-01-30T06:34:33;157.40;;;52.65;;
75297;SDS011;63896;45.990;18.688;2024-01-30T06:37:36;146.60;;;45.75;;
75297;SDS011;63896;45.990;18.688;2024-01-30T06:40:39;81.20;;;28.60;;
75297;SDS011;63896;45.990;18.688;2024-01-30T06:43:42;61.17;;;23.97;;
75297;SDS011;63896;45.990;18.688;2024-01-30T06:46:47;64.72;;;23.42;;
75297;SDS011;63896;45.990;18.688;2024-01-30T06:49:50;61.90;;;24.00;;
75297;SDS011;63896;45.990;18.688;2024-01-30T06:52:53;62.15;;;23.02;;
75297;SDS011;63896;45.990;18.688;2024-01-30T06:55:56;56.43;;;21.07;;
75297;SDS011;63896;45.990;18.688;2024-01-30T06:58:59;62.40;;;21.53;;
75297;SDS011;63896;45.990;18.688;2024-01-30T07:02:02;59.35;;;18.55;;
75297;SDS011;63896;45.990;18.688;2024-01-30T07:05:06;56.67;;;21.42;;
75297;SDS011;63896;45.990;18.688;2024-01-30T07:08:09;61.70;;;21.90;;
75297;SDS011;63896;45.990;18.688;2024-01-30T07:11:17;60.30;;;19.20;;
75297;SDS011;63896;45.990;18.688;2024-01-30T07:14:26;60.87;;;21.93;;
75297;SDS011;63896;45.990;18.688;2024-01-30T07:17:29;57.10;;;22.52;;
75297;SDS011;63896;45.990;18.688;2024-01-30T07:20:32;55.40;;;21.23;;
75297;SDS011;63896;45.990;18.688;2024-01-30T07:23:35;66.93;;;24.15;;
75297;SDS011;63896;45.990;18.688;2024-01-30T07:26:41;66.00;;;23.37;;
75297;SDS011;63896;45.990;18.688;2024-01-30T07:30:08;66.10;;;23.57;;
75297;SDS011;63896;45.990;18.688;2024-01-30T07:33:13;77.82;;;24.33;;
75297;SDS011;63896;45.990;18.688;2024-01-30T07:36:16;68.65;;;24.02;;
75297;SDS011;63896;45.990;18.688;2024-01-30T07:39:19;73.68;;;23.17;;
75297;SDS011;63896;45.990;18.688;2024-01-30T07:42:23;58.20;;;22.23;;
75297;SDS011;63896;45.990;18.688;2024-01-30T07:45:26;50.53;;;19.77;;
75297;SDS011;63896;45.990;18.688;2024-01-30T07:48:30;68.38;;;22.90;;
75297;SDS011;63896;45.990;18.688;2024-01-30T07:51:34;65.05;;;22.63;;
75297;SDS011;63896;45.990;18.688;2024-01-30T07:54:40;40.45;;;16.77;;
75297;SDS011;63896;45.990;18.688;2024-01-30T07:57:42;56.40;;;21.23;;
75297;SDS011;63896;45.990;18.688;2024-01-30T08:00:45;62.57;;;21.57;;
75297;SDS011;63896;45.990;18.688;2024-01-30T08:03:48;42.25;;;16.50;;
75297;SDS011;63896;45.990;18.688;2024-01-30T08:06:51;63.70;;;21.67;;
75297;SDS011;63896;45.990;18.688;2024-01-30T08:09:54;68.63;;;23.65;;
75297;SDS011;63896;45.990;18.688;2024-01-30T08:12:57;56.07;;;21.87;;
75297;SDS011;63896;45.990;18.688;2024-01-30T08:16:00;50.60;;;21.00;;
75297;SDS011;63896;45.990;18.688;2024-01-30T08:19:03;42.47;;;17.63;;
75297;SDS011;63896;45.990;18.688;2024-01-30T08:22:06;49.85;;;19.45;;
75297;SDS011;63896;45.990;18.688;2024-01-30T08:25:09;51.67;;;20.80;;
75297;SDS011;63896;45.990;18.688;2024-01-30T08:28:12;57.30;;;21.67;;
75297;SDS011;63896;45.990;18.688;2024-01-30T08:31:16;53.00;;;20.73;;
75297;SDS011;63896;45.990;18.688;2024-01-30T08:34:19;61.17;;;21.35;;
75297;SDS011;63896;45.990;18.688;2024-01-30T08:37:22;53.75;;;21.98;;
75297;SDS011;63896;45.990;18.688;2024-01-30T08:40:25;56.15;;;21.42;;
75297;SDS011;63896;45.990;18.688;2024-01-30T08:43:28;50.67;;;21.70;;
75297;SDS011;63896;45.990;18.688;2024-01-30T08:46:31;50.03;;;21.10;;
75297;SDS011;63896;45.990;18.688;2024-01-30T08:49:34;46.35;;;19.10;;
75297;SDS011;63896;45.990;18.688;2024-01-30T08:52:37;45.70;;;20.52;;
75297;SDS011;63896;45.990;18.688;2024-01-30T08:55:40;46.58;;;19.13;;
75297;SDS011;63896;45.990;18.688;2024-01-30T08:58:43;40.83;;;18.23;;
75297;SDS011;63896;45.990;18.688;2024-01-30T09:01:47;41.23;;;17.53;;
75297;SDS011;63896;45.990;18.688;2024-01-30T09:05:04;38.83;;;19.48;;
75297;SDS011;63896;45.990;18.688;2024-01-30T09:08:07;40.05;;;19.25;;
75297;SDS011;63896;45.990;18.688;2024-01-30T09:11:13;38.92;;;19.15;;
75297;SDS011;63896;45.990;18.688;2024-01-30T09:14:17;43.65;;;20.90;;
75297;SDS011;63896;45.990;18.688;2024-01-30T09:18:00;39.87;;;19.27;;
75297;SDS011;63896;45.990;18.688;2024-01-30T09:21:13;36.90;;;20.25;;
75297;SDS011;63896;45.990;18.688;2024-01-30T09:24:16;43.90;;;23.23;;
75297;SDS011;63896;45.990;18.688;2024-01-30T09:27:19;47.83;;;25.27;;
75297;SDS011;63896;45.990;18.688;2024-01-30T09:30:22;38.83;;;19.45;;
75297;SDS011;63896;45.990;18.688;2024-01-30T09:33:25;36.03;;;19.07;;
75297;SDS011;63896;45.990;18.688;2024-01-30T09:36:28;37.80;;;19.40;;
75297;SDS011;63896;45.990;18.688;2024-01-30T09:39:31;42.35;;;20.77;;
75297;SDS011;63896;45.990;18.688;2024-01-30T09:42:34;43.20;;;20.90;;
75297;SDS011;63896;45.990;18.688;2024-01-30T09:45:40;45.40;;;22.90;;
75297;SDS011;63896;45.990;18.688;2024-01-30T09:48:46;54.97;;;21.27;;
75297;SDS011;63896;45.990;18.688;2024-01-30T09:51:50;55.53;;;23.27;;
75297;SDS011;63896;45.990;18.688;2024-01-30T09:54:54;46.10;;;19.52;;
75297;SDS011;63896;45.990;18.688;2024-01-30T09:57:58;55.15;;;23.13;;
75297;SDS011;63896;45.990;18.688;2024-01-30T10:01:02;50.47;;;20.07;;
75297;SDS011;63896;45.990;18.688;2024-01-30T10:04:14;45.53;;;18.53;;
75297;SDS011;63896;45.990;18.688;2024-01-30T10:07:18;47.95;;;19.10;;
75297;SDS011;63896;45.990;18.688;2024-01-30T10:10:22;43.65;;;19.20;;
75297;SDS011;63896;45.990;18.688;2024-01-30T10:13:29;38.63;;;17.90;;
75297;SDS011;63896;45.990;18.688;2024-01-30T10:16:32;39.63;;;16.70;;
75297;SDS011;63896;45.990;18.688;2024-01-30T10:19:35;45.30;;;19.20;;
75297;SDS011;63896;45.990;18.688;2024-01-30T10:22:40;40.13;;;18.20;;
75297;SDS011;63896;45.990;18.688;2024-01-30T10:25:46;38.65;;;17.38;;
75297;SDS011;63896;45.990;18.688;2024-01-30T10:28:49;40.28;;;17.70;;
75297;SDS011;63896;45.990;18.688;2024-01-30T10:32:03;34.93;;;16.23;;
75297;SDS011;63896;45.990;18.688;2024-01-30T10:35:08;36.83;;;17.90;;
75297;SDS011;63896;45.990;18.688;2024-01-30T10:38:11;33.13;;;16.75;;
75297;SDS011;63896;45.990;18.688;2024-01-30T10:41:19;35.90;;;16.27;;
75297;SDS011;63896;45.990;18.688;2024-01-30T10:44:28;37.25;;;17.77;;
75297;SDS011;63896;45.990;18.688;2024-01-30T10:47:37;35.10;;;17.70;;
75297;SDS011;63896;45.990;18.688;2024-01-30T10:50:46;40.43;;;19.10;;
75297;SDS011;63896;45.990;18.688;2024-01-30T10:54:02;35.70;;;17.55;;
75297;SDS011;63896;45.990;18.688;2024-01-30T10:57:05;39.38;;;19.00;;
75297;SDS011;63896;45.990;18.688;2024-01-30T11:00:10;37.33;;;18.80;;
75297;SDS011;63896;45.990;18.688;2024-01-30T11:03:19;39.83;;;20.80;;
75297;SDS011;63896;45.990;18.688;2024-01-30T11:06:24;39.20;;;20.53;;
75297;SDS011;63896;45.990;18.688;2024-01-30T11:09:28;40.25;;;22.08;;
75297;SDS011;63896;45.990;18.688;2024-01-30T11:12:32;37.78;;;20.73;;
75297;SDS011;63896;45.990;18.688;2024-01-30T11:15:39;38.33;;;21.25;;
75297;SDS011;63896;45.990;18.688;2024-01-30T11:18:43;39.03;;;20.23;;
75297;SDS011;63896;45.990;18.688;2024-01-30T11:21:54;39.30;;;21.50;;
75297;SDS011;63896;45.990;18.688;2024-01-30T11:25:01;41.65;;;20.20;;
75297;SDS011;63896;45.990;18.688;2024-01-30T11:28:05;34.35;;;21.48;;
75297;SDS011;63896;45.990;18.688;2024-01-30T11:31:19;36.10;;;20.30;;
75297;SDS011;63896;45.990;18.688;2024-01-30T11:34:22;44.10;;;22.60;;
75297;SDS011;63896;45.990;18.688;2024-01-30T11:37:26;46.23;;;25.07;;
75297;SDS011;63896;45.990;18.688;2024-01-30T11:40:30;47.38;;;24.10;;
75297;SDS011;63896;45.990;18.688;2024-01-30T11:43:34;38.85;;;21.25;;
75297;SDS011;63896;45.990;18.688;2024-01-30T11:46:37;28.02;;;18.55;;
75297;SDS011;63896;45.990;18.688;2024-01-30T11:49:40;30.15;;;16.67;;
75297;SDS011;63896;45.990;18.688;2024-01-30T11:52:46;32.07;;;17.57;;
75297;SDS011;63896;45.990;18.688;2024-01-30T11:55:50;31.38;;;17.73;;
75297;SDS011;63896;45.990;18.688;2024-01-30T11:58:53;25.05;;;15.30;;
75297;SDS011;63896;45.990;18.688;2024-01-30T12:01:57;22.77;;;14.15;;
75297;SDS011;63896;45.990;18.688;2024-01-30T12:05:06;23.15;;;13.38;;
75297;SDS011;63896;45.990;18.688;2024-01-30T12:08:14;19.40;;;12.00;;
75297;SDS011;63896;45.990;18.688;2024-01-30T12:16:12;22.80;;;13.15;;
75297;SDS011;63896;45.990;18.688;2024-01-30T12:19:25;22.52;;;13.25;;
75297;SDS011;63896;45.990;18.688;2024-01-30T12:25:50;23.80;;;11.43;;
75297;SDS011;63896;45.990;18.688;2024-01-30T12:28:56;19.48;;;11.40;;
75297;SDS011;63896;45.990;18.688;2024-01-30T12:32:04;15.52;;;9.65;;
75297;SDS011;63896;45.990;18.688;2024-01-30T12:35:10;16.85;;;9.60;;
75297;SDS011;63896;45.990;18.688;2024-01-30T12:38:21;18.55;;;10.30;;
75297;SDS011;63896;45.990;18.688;2024-01-30T12:41:26;18.90;;;11.53;;
75297;SDS011;63896;45.990;18.688;2024-01-30T12:44:32;22.35;;;12.07;;
75297;SDS011;63896;45.990;18.688;2024-01-30T12:47:35;18.20;;;10.57;;
75297;SDS011;63896;45.990;18.688;2024-01-30T12:50:38;19.92;;;11.15;;
75297;SDS011;63896;45.990;18.688;2024-01-30T12:53:41;20.10;;;10.73;;
75297;SDS011;63896;45.990;18.688;2024-01-30T12:56:44;20.00;;;10.87;;
75297;SDS011;63896;45.990;18.688;2024-01-30T12:59:46;17.15;;;9.23;;
75297;SDS011;63896;45.990;18.688;2024-01-30T13:02:50;18.23;;;9.80;;
75297;SDS011;63896;45.990;18.688;2024-01-30T13:05:53;25.15;;;11.40;;
75297;SDS011;63896;45.990;18.688;2024-01-30T13:08:56;18.20;;;10.07;;
75297;SDS011;63896;45.990;18.688;2024-01-30T13:12:00;17.53;;;9.53;;
75297;SDS011;63896;45.990;18.688;2024-01-30T13:15:03;20.02;;;10.88;;
75297;SDS011;63896;45.990;18.688;2024-01-30T13:18:07;28.60;;;14.05;;
75297;SDS011;63896;45.990;18.688;2024-01-30T13:21:10;19.52;;;10.20;;
75297;SDS011;63896;45.990;18.688;2024-01-30T13:24:13;21.02;;;11.48;;
75297;SDS011;63896;45.990;18.688;2024-01-30T13:27:20;21.67;;;11.70;;
75297;SDS011;63896;45.990;18.688;2024-01-30T13:30:24;19.75;;;10.52;;
75297;SDS011;63896;45.990;18.688;2024-01-30T13:33:27;21.17;;;10.98;;
75297;SDS011;63896;45.990;18.688;2024-01-30T13:36:30;22.23;;;11.60;;
75297;SDS011;63896;45.990;18.688;2024-01-30T13:39:33;21.00;;;12.00;;
75297;SDS011;63896;45.990;18.688;2024-01-30T13:42:41;17.30;;;9.83;;
75297;SDS011;63896;45.990;18.688;2024-01-30T13:45:44;16.88;;;9.95;;
75297;SDS011;63896;45.990;18.688;2024-01-30T13:48:48;23.90;;;12.32;;
75297;SDS011;63896;45.990;18.688;2024-01-30T13:51:51;22.63;;;11.25;;
75297;SDS011;63896;45.990;18.688;2024-01-30T13:54:56;33.38;;;16.13;;
75297;SDS011;63896;45.990;18.688;2024-01-30T13:58:00;26.37;;;13.00;;
75297;SDS011;63896;45.990;18.688;2024-01-30T14:01:06;22.95;;;11.05;;
75297;SDS011;63896;45.990;18.688;2024-01-30T14:04:09;19.17;;;9.18;;
75297;SDS011;63896;45.990;18.688;2024-01-30T14:07:16;17.40;;;8.73;;
75297;SDS011;63896;45.990;18.688;2024-01-30T14:10:21;21.03;;;10.90;;
75297;SDS011;63896;45.990;18.688;2024-01-30T14:13:23;25.20;;;11.97;;
75297;SDS011;63896;45.990;18.688;2024-01-30T14:16:27;26.10;;;12.88;;
75297;SDS011;63896;45.990;18.688;2024-01-30T14:19:31;24.10;;;11.95;;
75297;SDS011;63896;45.990;18.688;2024-01-30T14:22:37;20.80;;;10.35;;
75297;SDS011;63896;45.990;18.688;2024-01-30T14:25:40;28.77;;;12.30;;
75297;SDS011;63896;45.990;18.688;2024-01-30T14:28:43;42.80;;;15.73;;
75297;SDS011;63896;45.990;18.688;2024-01-30T14:31:48;28.23;;;12.65;;
75297;SDS011;63896;45.990;18.688;2024-01-30T14:34:51;29.77;;;13.70;;
75297;SDS011;63896;45.990;18.688;2024-01-30T14:37:58;30.65;;;14.25;;
75297;SDS011;63896;45.990;18.688;2024-01-30T14:41:01;31.60;;;15.17;;
75297;SDS011;63896;45.990;18.688;2024-01-30T14:44:03;29.27;;;13.87;;
75297;SDS011;63896;45.990;18.688;2024-01-30T14:47:09;34.00;;;15.65;;
75297;SDS011;63896;45.990;18.688;2024-01-30T14:50:12;39.63;;;15.48;;
75297;SDS011;63896;45.990;18.688;2024-01-30T14:53:14;28.42;;;12.43;;
75297;SDS011;63896;45.990;18.688;2024-01-30T14:56:17;31.87;;;14.50;;
75297;SDS011;63896;45.990;18.688;2024-01-30T14:59:21;36.00;;;16.07;;
75297;SDS011;63896;45.990;18.688;2024-01-30T15:02:24;35.05;;;15.50;;
75297;SDS011;63896;45.990;18.688;2024-01-30T15:05:27;31.25;;;13.75;;
75297;SDS011;63896;45.990;18.688;2024-01-30T15:08:30;44.17;;;18.15;;
75297;SDS011;63896;45.990;18.688;2024-01-30T15:11:33;51.90;;;19.87;;
75297;SDS011;63896;45.990;18.688;2024-01-30T15:14:37;61.73;;;23.93;;
75297;SDS011;63896;45.990;18.688;2024-01-30T15:17:41;60.13;;;21.65;;
75297;SDS011;63896;45.990;18.688;2024-01-30T15:20:43;34.83;;;16.05;;
75297;SDS011;63896;45.990;18.688;2024-01-30T15:23:46;37.97;;;17.35;;
75297;SDS011;63896;45.990;18.688;2024-01-30T15:26:49;41.37;;;17.33;;
75297;SDS011;63896;45.990;18.688;2024-01-30T15:29:53;43.27;;;19.37;;
75297;SDS011;63896;45.990;18.688;2024-01-30T15:32:56;42.78;;;18.45;;
75297;SDS011;63896;45.990;18.688;2024-01-30T15:36:00;43.25;;;19.02;;
75297;SDS011;63896;45.990;18.688;2024-01-30T15:39:03;45.40;;;21.20;;
75297;SDS011;63896;45.990;18.688;2024-01-30T15:42:07;51.27;;;22.87;;
75297;SDS011;63896;45.990;18.688;2024-01-30T15:45:10;55.57;;;23.03;;
75297;SDS011;63896;45.990;18.688;2024-01-30T15:48:13;69.95;;;26.65;;
75297;SDS011;63896;45.990;18.688;2024-01-30T15:51:16;70.28;;;30.33;;
75297;SDS011;63896;45.990;18.688;2024-01-30T15:54:19;68.10;;;30.92;;
75297;SDS011;63896;45.990;18.688;2024-01-30T15:57:22;80.53;;;33.63;;
75297;SDS011;63896;45.990;18.688;2024-01-30T16:00:28;86.07;;;37.47;;
75297;SDS011;63896;45.990;18.688;2024-01-30T16:03:33;70.65;;;32.15;;
75297;SDS011;63896;45.990;18.688;2024-01-30T16:06:36;60.80;;;28.30;;
75297;SDS011;63896;45.990;18.688;2024-01-30T16:09:40;67.63;;;31.67;;
75297;SDS011;63896;45.990;18.688;2024-01-30T16:12:43;72.93;;;32.57;;
75297;SDS011;63896;45.990;18.688;2024-01-30T16:16:04;63.63;;;28.87;;
75297;SDS011;63896;45.990;18.688;2024-01-30T16:19:08;56.03;;;27.50;;
75297;SDS011;63896;45.990;18.688;2024-01-30T16:22:11;52.83;;;24.60;;
75297;SDS011;63896;45.990;18.688;2024-01-30T16:25:14;47.47;;;23.50;;
75297;SDS011;63896;45.990;18.688;2024-01-30T16:31:27;123.70;;;46.07;;
75297;SDS011;63896;45.990;18.688;2024-01-30T16:34:30;90.55;;;35.55;;
75297;SDS011;63896;45.990;18.688;2024-01-30T16:37:34;69.60;;;28.75;;
75297;SDS011;63896;45.990;18.688;2024-01-30T16:40:37;108.60;;;40.90;;
75297;SDS011;63896;45.990;18.688;2024-01-30T16:43:39;78.63;;;31.17;;
75297;SDS011;63896;45.990;18.688;2024-01-30T16:46:42;72.13;;;30.30;;
75297;SDS011;63896;45.990;18.688;2024-01-30T16:49:45;80.18;;;31.13;;
75297;SDS011;63896;45.990;18.688;2024-01-30T16:52:48;78.07;;;31.33;;
75297;SDS011;63896;45.990;18.688;2024-01-30T16:55:51;69.50;;;28.63;;
75297;SDS011;63896;45.990;18.688;2024-01-30T16:58:54;59.10;;;24.93;;
75297;SDS011;63896;45.990;18.688;2024-01-30T17:01:57;90.70;;;29.70;;
75297;SDS011;63896;45.990;18.688;2024-01-30T17:05:01;84.05;;;31.90;;
75297;SDS011;63896;45.990;18.688;2024-01-30T17:08:21;74.40;;;27.80;;
75297;SDS011;63896;45.990;18.688;2024-01-30T17:11:24;85.10;;;27.30;;
75297;SDS011;63896;45.990;18.688;2024-01-30T17:14:27;63.43;;;24.43;;
75297;SDS011;63896;45.990;18.688;2024-01-30T17:17:31;62.63;;;23.40;;
75297;SDS011;63896;45.990;18.688;2024-01-30T17:20:34;53.25;;;24.05;;
75297;SDS011;63896;45.990;18.688;2024-01-30T17:23:51;63.03;;;23.88;;
75297;SDS011;63896;45.990;18.688;2024-01-30T17:26:54;61.72;;;23.23;;
75297;SDS011;63896;45.990;18.688;2024-01-30T17:29:57;62.67;;;24.77;;
75297;SDS011;63896;45.990;18.688;2024-01-30T17:33:00;66.27;;;25.27;;
75297;SDS011;63896;45.990;18.688;2024-01-30T17:36:03;67.97;;;25.15;;
75297;SDS011;63896;45.990;18.688;2024-01-30T17:39:06;75.63;;;28.27;;
75297;SDS011;63896;45.990;18.688;2024-01-30T17:42:10;76.15;;;26.58;;
75297;SDS011;63896;45.990;18.688;2024-01-30T17:45:13;94.97;;;29.43;;
75297;SDS011;63896;45.990;18.688;2024-01-30T17:48:16;76.07;;;29.20;;
75297;SDS011;63896;45.990;18.688;2024-01-30T17:51:20;93.78;;;32.13;;